Time;durP1;ratioP1;P1;durP2;ratioP2;P2;SDS_P1;SDS_P2;PMS_P1;PMS_P2;Temp;Humidity;BMP_temperature;BMP_pressure;BME280_temperature;BME280_humidity;BME280_pressure;Samples;Min_cycle;Max_cycle;Signal;HPM_P1;HPM_P2
2023/02/08 00:00:25;;;;;;;23.00;13.97;;;2.20;51.50;;;;;;5034409;28;20037;-71
2023/02/08 00:02:51;;;;;;;21.80;14.13;;;2.20;51.40;;;;;;5034376;28;20044;-71
2023/02/08 00:05:17;;;;;;;23.93;14.43;;;2.20;51.60;;;;;;5034135;28;20025;-71
2023/02/08 00:07:43;;;;;;;23.83;13.57;;;2.20;51.90;;;;;;5033729;28;20053;-71
2023/02/08 00:10:09;;;;;;;25.20;14.10;;;2.20;52.10;;;;;;5034302;28;20056;-71
2023/02/08 00:12:36;;;;;;;21.97;13.30;;;2.20;52.00;;;;;;5034436;28;20120;-71
2023/02/08 00:15:03;;;;;;;25.47;14.43;;;2.20;51.80;;;;;;5034241;28;20034;-71
2023/02/08 00:17:29;;;;;;;25.20;14.47;;;2.20;52.20;;;;;;5033974;28;20041;-71
2023/02/08 00:19:55;;;;;;;26.30;14.33;;;2.10;52.20;;;;;;5033989;28;20540;-71
2023/02/08 00:22:21;;;;;;;22.70;14.17;;;2.10;52.40;;;;;;5033868;28;20029;-71
2023/02/08 00:24:48;;;;;;;28.90;14.13;;;2.20;52.50;;;;;;5032632;28;20032;-71
2023/02/08 00:27:14;;;;;;;27.77;15.27;;;2.10;52.30;;;;;;5034069;28;20610;-71
2023/02/08 00:29:40;;;;;;;23.17;13.90;;;2.10;52.40;;;;;;5033901;28;20028;-71
2023/02/08 00:32:06;;;;;;;22.17;14.60;;;2.10;52.80;;;;;;5034030;28;20033;-71
2023/02/08 00:34:34;;;;;;;22.20;13.57;;;2.10;52.70;;;;;;5033863;28;20040;-72
2023/02/08 00:37:00;;;;;;;23.87;14.97;;;2.10;53.10;;;;;;5033748;28;20037;-71
2023/02/08 00:39:25;;;;;;;24.40;14.53;;;2.00;53.20;;;;;;5033852;28;20041;-71
2023/02/08 00:41:51;;;;;;;25.43;15.50;;;2.00;53.10;;;;;;5033378;28;20042;-71
2023/02/08 00:44:17;;;;;;;23.80;15.07;;;2.10;53.10;;;;;;5033407;28;20033;-71
2023/02/08 00:46:43;;;;;;;27.53;15.97;;;2.10;53.20;;;;;;5033590;28;20075;-71
2023/02/08 00:49:09;;;;;;;27.97;16.00;;;2.00;53.20;;;;;;5033210;28;20045;-71
2023/02/08 00:51:34;;;;;;;28.53;15.83;;;2.00;53.20;;;;;;5033545;28;20037;-71
2023/02/08 00:54:00;;;;;;;24.73;14.87;;;2.00;53.30;;;;;;5033534;28;20119;-71
2023/02/08 00:56:26;;;;;;;25.13;15.53;;;2.00;53.20;;;;;;5033451;28;20072;-71
2023/02/08 00:58:51;;;;;;;25.50;15.57;;;2.00;53.30;;;;;;5033349;28;20484;-71
2023/02/08 01:01:17;;;;;;;28.23;16.57;;;2.00;53.30;;;;;;5033424;28;20041;-72
2023/02/08 01:03:43;;;;;;;28.17;16.70;;;2.00;53.60;;;;;;5033176;28;20037;-72
2023/02/08 01:06:13;;;;;;;26.57;15.47;;;2.00;53.70;;;;;;5032580;28;20057;-71
2023/02/08 01:08:39;;;;;;;25.57;15.70;;;1.90;53.80;;;;;;5033047;28;20030;-72
2023/02/08 01:11:06;;;;;;;25.63;16.07;;;2.00;53.70;;;;;;5033140;28;20052;-71
2023/02/08 01:13:33;;;;;;;26.97;16.40;;;2.00;53.50;;;;;;5033367;28;20030;-71
2023/02/08 01:16:12;;;;;;;27.47;17.27;;;2.00;53.80;;;;;;5033306;28;20037;-71
2023/02/08 01:18:39;;;;;;;24.67;15.77;;;1.90;53.90;;;;;;5033161;28;20116;-71
2023/02/08 01:21:10;;;;;;;26.60;16.00;;;1.90;54.00;;;;;;5033174;28;20119;-71
2023/02/08 01:23:36;;;;;;;30.97;17.57;;;1.90;54.60;;;;;;5033123;28;20025;-71
2023/02/08 01:26:03;;;;;;;27.33;15.97;;;1.90;53.50;;;;;;5033195;28;20514;-72
2023/02/08 01:28:29;;;;;;;29.93;17.43;;;1.90;53.80;;;;;;5032819;28;20510;-71
2023/02/08 01:30:54;;;;;;;27.53;16.93;;;1.90;53.70;;;;;;5032983;28;20220;-71
2023/02/08 01:33:20;;;;;;;28.90;17.07;;;1.90;53.80;;;;;;5032896;28;20037;-71
2023/02/08 01:35:52;;;;;;;29.20;17.10;;;1.80;53.90;;;;;;5033040;28;20034;-72
2023/02/08 01:38:19;;;;;;;24.73;15.90;;;1.80;54.50;;;;;;5032505;28;20554;-71
2023/02/08 01:40:45;;;;;;;29.40;17.37;;;1.80;54.70;;;;;;5033276;28;20125;-72
2023/02/08 01:43:22;;;;;;;32.87;18.47;;;1.80;54.80;;;;;;5032888;28;20504;-72
2023/02/08 01:45:48;;;;;;;32.73;17.30;;;1.80;54.80;;;;;;5032896;28;20037;-71
2023/02/08 01:48:20;;;;;;;29.23;17.13;;;1.70;54.70;;;;;;5032792;28;20041;-71
2023/02/08 01:51:01;;;;;;;27.65;16.48;;;1.70;54.80;;;;;;5032748;28;20035;-71
2023/02/08 01:53:29;;;;;;;26.87;16.67;;;1.70;54.70;;;;;;5032781;28;20484;-71
2023/02/08 01:56:04;;;;;;;31.17;17.00;;;1.70;54.40;;;;;;5032452;28;20056;-71
2023/02/08 01:58:33;;;;;;;29.67;17.03;;;1.70;55.20;;;;;;5030702;28;20053;-72
2023/02/08 02:01:01;;;;;;;29.50;16.80;;;1.70;54.50;;;;;;5029905;28;20476;-71
2023/02/08 02:03:27;;;;;;;33.73;17.30;;;1.70;54.40;;;;;;5029920;28;20129;-71
2023/02/08 02:06:11;;;;;;;30.20;18.00;;;1.70;54.70;;;;;;5031905;28;20040;-71
2023/02/08 02:08:48;;;;;;;32.03;17.93;;;1.60;55.00;;;;;;5032456;28;20029;-71
2023/02/08 02:11:14;;;;;;;32.40;17.67;;;1.60;55.00;;;;;;5031041;28;20025;-72
2023/02/08 02:13:40;;;;;;;29.67;17.17;;;1.60;55.00;;;;;;5032374;28;20038;-71
2023/02/08 02:16:06;;;;;;;28.43;17.03;;;1.50;55.20;;;;;;5034575;28;20557;-71
2023/02/08 02:18:33;;;;;;;28.97;16.37;;;1.50;55.40;;;;;;5036590;28;20041;-71
2023/02/08 02:21:30;;;;;;;27.50;16.47;;;1.50;55.00;;;;;;5035765;28;20030;-71
2023/02/08 02:23:59;;;;;;;29.70;17.50;;;1.50;55.00;;;;;;5035953;28;20052;-72
2023/02/08 02:26:44;;;;;;;33.00;16.67;;;1.50;54.90;;;;;;5036028;28;20033;-71
2023/02/08 02:29:31;;;;;;;29.50;17.47;;;1.50;55.10;;;;;;5035714;28;20042;-72
2023/02/08 02:32:18;;;;;;;28.80;16.93;;;1.50;55.10;;;;;;5036215;28;20034;-71
2023/02/08 02:34:56;;;;;;;30.67;17.53;;;1.50;55.30;;;;;;5035760;28;20033;-72
2023/02/08 02:37:41;;;;;;;30.30;17.50;;;1.50;55.30;;;;;;5035793;28;20124;-72
2023/02/08 02:40:29;;;;;;;32.23;17.43;;;1.50;55.30;;;;;;5035963;28;20495;-71
2023/02/08 02:46:02;;;;;;;33.33;17.37;;;1.40;55.10;;;;;;5035741;28;20516;-71
2023/02/08 02:48:46;;;;;;;26.70;16.07;;;1.40;55.60;;;;;;5036232;28;20514;-72
2023/02/08 02:51:19;;;;;;;31.77;17.73;;;1.40;54.80;;;;;;5035765;28;20037;-72
2023/02/08 02:54:03;;;;;;;;;;;1.40;55.10;;;;;;5036149;28;20045;-72
2023/02/08 02:56:41;;;;;;;26.10;16.13;;;1.40;55.10;;;;;;5035588;28;19913;-72
2023/02/08 02:59:09;;;;;;;26.93;16.37;;;1.40;55.50;;;;;;5034609;28;20035;-71
2023/02/08 03:01:36;;;;;;;27.60;16.27;;;1.40;55.60;;;;;;5035609;28;20083;-72
2023/02/08 03:04:31;;;;;;;28.57;16.77;;;1.40;55.90;;;;;;5035686;28;20037;-71
2023/02/08 03:07:22;;;;;;;28.70;16.87;;;1.30;55.60;;;;;;5032769;28;20068;-72
2023/02/08 03:09:50;;;;;;;29.23;16.03;;;1.30;55.50;;;;;;5035469;28;20037;-72
2023/02/08 03:12:34;;;;;;;28.20;15.40;;;1.30;55.30;;;;;;5035553;28;20030;-72
2023/02/08 03:15:14;;;;;;;27.43;16.57;;;1.30;55.30;;;;;;5034008;28;20041;-72
2023/02/08 03:17:58;;;;;;;28.60;17.03;;;1.40;55.80;;;;;;5035018;28;20052;-71
2023/02/08 03:21:16;;;;;;;27.03;16.13;;;1.30;54.90;;;;;;5035097;28;20034;-72
2023/02/08 03:24:12;;;;;;;30.40;16.50;;;1.40;55.20;;;;;;5011961;28;20033;-71
2023/02/08 03:27:02;;;;;;;31.13;16.20;;;1.40;55.10;;;;;;5032008;28;20506;-71
2023/02/08 03:29:48;;;;;;;38.13;17.93;;;1.40;55.00;;;;;;5034805;28;20038;-71
2023/02/08 03:32:28;;;;;;;32.20;16.13;;;1.40;55.00;;;;;;5034135;28;20037;-71
2023/02/08 03:35:01;;;;;;;32.90;17.77;;;1.40;55.10;;;;;;5035295;28;20049;-71
2023/02/08 03:37:34;;;;;;;31.77;17.10;;;1.40;54.90;;;;;;5035216;28;20045;-71
2023/02/08 03:40:09;;;;;;;;;;;1.30;54.80;;;;;;5035174;28;20081;-71
2023/02/08 03:42:36;;;;;;;30.47;17.10;;;1.40;54.70;;;;;;5034792;28;19916;-72
2023/02/08 03:45:15;;;;;;;27.83;16.73;;;1.30;55.00;;;;;;5034771;28;20480;-72
2023/02/08 03:47:44;;;;;;;35.30;16.40;;;1.30;55.10;;;;;;5034960;28;20033;-72
2023/02/08 03:50:13;;;;;;;33.00;16.63;;;1.30;55.00;;;;;;5034990;28;20037;-71
2023/02/08 03:52:40;;;;;;;28.60;16.70;;;1.30;55.10;;;;;;5034821;28;20029;-71
2023/02/08 03:55:13;;;;;;;25.80;16.03;;;1.30;55.00;;;;;;5034535;28;20542;-71
2023/02/08 03:58:07;;;;;;;29.63;16.17;;;1.30;55.10;;;;;;5034472;28;20133;-71
2023/02/08 04:00:38;;;;;;;31.35;16.92;;;1.30;54.90;;;;;;5034569;28;20037;-71
2023/02/08 04:03:13;;;;;;;42.63;16.80;;;1.30;55.30;;;;;;5034442;28;20121;-71
2023/02/08 04:05:39;;;;;;;33.37;15.67;;;1.30;55.40;;;;;;5034454;28;20126;-71
2023/02/08 04:08:05;;;;;;;37.17;15.97;;;1.20;55.40;;;;;;5034346;28;20034;-72
2023/02/08 04:10:31;;;;;;;29.93;16.70;;;1.20;55.30;;;;;;5034400;28;20033;-72
2023/02/08 04:12:56;;;;;;;38.17;16.77;;;1.20;55.40;;;;;;5034090;28;20029;-71
2023/02/08 04:15:22;;;;;;;36.53;16.87;;;1.20;55.60;;;;;;5033898;28;20029;-71
2023/02/08 04:17:48;;;;;;;27.47;15.87;;;1.20;55.80;;;;;;5034006;28;20583;-72
2023/02/08 04:20:13;;;;;;;28.87;16.07;;;1.20;55.90;;;;;;5034157;28;20025;-71
2023/02/08 04:22:39;;;;;;;26.83;15.47;;;1.20;56.00;;;;;;5034228;28;20619;-71
2023/02/08 04:25:05;;;;;;;34.27;16.87;;;1.20;56.20;;;;;;5033962;28;20029;-71
2023/02/08 04:27:31;;;;;;;35.63;15.77;;;1.10;56.20;;;;;;5033225;28;20025;-71
2023/02/08 04:29:57;;;;;;;31.20;15.90;;;1.10;56.60;;;;;;5031473;28;20064;-72
2023/02/08 04:32:22;;;;;;;29.63;16.03;;;1.10;56.30;;;;;;5031218;28;20180;-71
2023/02/08 04:34:48;;;;;;;28.17;14.53;;;1.10;56.70;;;;;;5033868;28;20106;-71
2023/02/08 04:37:14;;;;;;;26.13;15.13;;;1.00;56.50;;;;;;5033705;28;20061;-71
2023/02/08 04:39:39;;;;;;;33.40;15.67;;;1.00;56.40;;;;;;5033008;28;20132;-71
2023/02/08 04:42:05;;;;;;;30.73;16.03;;;1.00;56.40;;;;;;5033852;28;20034;-71
2023/02/08 04:44:31;;;;;;;28.03;15.60;;;1.00;56.70;;;;;;5033886;28;20112;-71
2023/02/08 04:46:58;;;;;;;35.57;15.50;;;1.00;56.70;;;;;;5033769;28;20072;-72
2023/02/08 04:49:24;;;;;;;35.33;14.93;;;1.00;56.30;;;;;;5033921;28;20033;-71
2023/02/08 04:51:49;;;;;;;30.70;15.30;;;1.00;56.30;;;;;;5033852;28;20064;-71
2023/02/08 04:54:15;;;;;;;24.70;13.90;;;1.00;56.40;;;;;;5033531;28;20040;-71
2023/02/08 04:56:41;;;;;;;28.10;15.20;;;1.00;56.60;;;;;;5033577;28;20041;-71
2023/02/08 04:59:06;;;;;;;34.33;15.33;;;1.00;56.40;;;;;;5033390;28;20064;-71
2023/02/08 05:01:32;;;;;;;27.23;14.40;;;1.00;56.60;;;;;;5033477;28;20064;-71
2023/02/08 05:03:58;;;;;;;28.70;15.67;;;0.90;56.60;;;;;;5033329;28;20026;-71
2023/02/08 05:06:24;;;;;;;26.97;13.63;;;0.90;56.70;;;;;;5033122;28;20073;-71
2023/02/08 05:08:49;;;;;;;25.00;14.57;;;0.90;56.90;;;;;;5033389;28;20030;-71
2023/02/08 05:11:23;;;;;;;28.53;15.37;;;0.90;56.90;;;;;;5033267;28;20029;-71
2023/02/08 05:13:49;;;;;;;24.47;14.67;;;0.90;57.00;;;;;;5033023;28;20069;-71
2023/02/08 05:16:15;;;;;;;27.57;15.67;;;0.90;57.30;;;;;;5032868;28;20488;-71
2023/02/08 05:18:41;;;;;;;30.00;16.77;;;0.80;57.20;;;;;;5030979;28;20050;-72
2023/02/08 05:21:07;;;;;;;29.83;16.27;;;0.80;57.40;;;;;;5030406;28;20037;-71
2023/02/08 05:23:32;;;;;;;32.63;16.47;;;0.80;57.50;;;;;;5031689;28;20048;-72
2023/02/08 05:25:58;;;;;;;28.87;15.97;;;0.80;57.40;;;;;;5032865;28;20392;-71
2023/02/08 05:28:25;;;;;;;35.07;15.67;;;0.80;57.40;;;;;;5032956;28;20041;-71
2023/02/08 05:30:51;;;;;;;31.23;16.40;;;0.80;57.50;;;;;;5032843;28;20117;-71
2023/02/08 05:33:17;;;;;;;27.03;15.07;;;0.80;57.50;;;;;;5032964;28;20030;-71
2023/02/08 05:35:44;;;;;;;31.57;17.17;;;0.80;57.30;;;;;;5032942;28;20487;-71
2023/02/08 05:38:10;;;;;;;27.77;15.73;;;0.80;57.30;;;;;;5032721;28;20037;-71
2023/02/08 05:40:35;;;;;;;40.13;16.17;;;0.80;57.30;;;;;;5032797;28;20029;-71
2023/02/08 05:43:01;;;;;;;34.87;16.10;;;0.80;57.50;;;;;;5032546;28;20108;-72
2023/02/08 05:45:27;;;;;;;33.70;17.30;;;0.80;57.50;;;;;;5032697;28;20086;-71
2023/02/08 05:47:53;;;;;;;32.53;16.53;;;0.80;57.60;;;;;;5032787;28;20030;-71
2023/02/08 05:50:19;;;;;;;27.50;14.73;;;0.80;57.60;;;;;;5032172;28;20025;-71
2023/02/08 05:52:44;;;;;;;28.67;15.70;;;0.80;57.30;;;;;;5032735;28;20104;-71
2023/02/08 05:55:10;;;;;;;26.57;15.30;;;0.80;57.20;;;;;;5032447;28;20029;-71
2023/02/08 05:57:36;;;;;;;24.47;14.87;;;0.80;57.20;;;;;;5032625;28;20037;-71
2023/02/08 06:00:04;;;;;;;29.20;15.03;;;0.80;57.20;;;;;;5032710;28;20083;-71
2023/02/08 06:02:31;;;;;;;26.70;15.03;;;0.80;57.10;;;;;;5032736;28;20048;-71
2023/02/08 06:04:57;;;;;;;28.53;16.20;;;0.80;57.20;;;;;;5032510;28;20088;-72
2023/02/08 06:07:23;;;;;;;42.77;16.10;;;0.80;57.20;;;;;;5032200;28;20053;-71
2023/02/08 06:09:48;;;;;;;27.00;15.33;;;0.80;57.20;;;;;;5032657;28;20044;-72
2023/02/08 06:12:14;;;;;;;30.23;16.10;;;0.80;57.30;;;;;;5032570;28;20128;-72
2023/02/08 06:14:40;;;;;;;27.87;15.10;;;0.80;57.20;;;;;;5031990;28;20056;-71
2023/02/08 06:17:05;;;;;;;30.63;15.60;;;0.80;57.40;;;;;;5032390;28;20041;-71
2023/02/08 06:19:31;;;;;;;26.47;15.87;;;0.80;57.20;;;;;;5032208;28;20102;-71
2023/02/08 06:21:57;;;;;;;29.53;15.03;;;0.80;57.20;;;;;;5032533;28;20041;-72
2023/02/08 06:24:24;;;;;;;27.77;15.83;;;0.90;57.90;;;;;;5032228;28;20167;-71
2023/02/08 06:26:50;;;;;;;25.50;15.23;;;0.90;57.20;;;;;;5032474;28;20026;-71
2023/02/08 06:29:15;;;;;;;26.67;15.07;;;0.90;57.40;;;;;;5032412;28;20033;-71
2023/02/08 06:31:41;;;;;;;30.07;16.77;;;0.90;57.30;;;;;;5032446;28;20038;-71
2023/02/08 06:34:07;;;;;;;32.20;15.40;;;0.90;57.40;;;;;;5032272;28;20557;-71
2023/02/08 06:36:33;;;;;;;27.00;15.57;;;0.90;57.40;;;;;;5032195;28;20077;-71
2023/02/08 06:38:58;;;;;;;27.97;16.07;;;0.80;57.50;;;;;;5032375;28;20091;-71
2023/02/08 06:41:24;;;;;;;29.70;15.50;;;0.90;57.70;;;;;;5032259;28;20041;-71
2023/02/08 06:43:50;;;;;;;28.60;16.07;;;0.90;57.80;;;;;;5031928;28;20081;-71
2023/02/08 06:46:16;;;;;;;23.93;13.63;;;0.90;57.80;;;;;;5031871;28;20030;-71
2023/02/08 06:48:41;;;;;;;28.27;15.40;;;0.90;57.90;;;;;;5031603;28;20034;-71
2023/02/08 06:51:07;;;;;;;26.23;15.07;;;0.90;58.00;;;;;;5031954;28;20104;-71
2023/02/08 06:53:33;;;;;;;28.80;14.37;;;0.90;57.90;;;;;;5031103;28;20129;-71
2023/02/08 06:55:58;;;;;;;26.23;13.47;;;0.90;57.80;;;;;;5031889;28;20037;-71
2023/02/08 06:58:24;;;;;;;26.87;14.77;;;0.90;58.00;;;;;;5032138;28;20107;-71
2023/02/08 07:00:50;;;;;;;26.03;14.60;;;0.90;58.00;;;;;;5032219;28;20037;-71
2023/02/08 07:03:18;;;;;;;29.07;15.47;;;0.90;57.80;;;;;;5035498;28;20034;-71
2023/02/08 07:05:44;;;;;;;25.93;14.37;;;0.90;57.80;;;;;;5034956;28;20475;-71
2023/02/08 07:08:10;;;;;;;28.03;14.10;;;0.90;57.70;;;;;;5033152;28;20076;-71
2023/02/08 07:10:39;;;;;;;25.67;14.13;;;0.90;57.90;;;;;;5033203;28;20025;-73
2023/02/08 07:13:05;;;;;;;24.70;13.03;;;0.90;58.00;;;;;;5034716;28;20036;-72
2023/02/08 07:15:31;;;;;;;31.40;14.90;;;1.00;58.00;;;;;;5035180;28;20033;-70
2023/02/08 07:17:58;;;;;;;26.20;12.97;;;1.00;57.70;;;;;;5034829;28;20557;-72
2023/02/08 07:20:24;;;;;;;21.57;12.20;;;1.00;57.90;;;;;;5037339;28;20038;-77
2023/02/08 07:22:49;;;;;;;21.80;12.63;;;1.10;58.00;;;;;;5035200;28;20072;-81
2023/02/08 07:25:15;;;;;;;25.80;13.13;;;1.10;57.60;;;;;;5039575;28;20025;-68
2023/02/08 07:27:41;;;;;;;22.53;12.33;;;1.20;57.50;;;;;;5037111;28;20068;-82
2023/02/08 07:30:07;;;;;;;27.07;13.27;;;1.20;57.50;;;;;;5035541;28;20033;-73
2023/02/08 07:32:34;;;;;;;26.47;13.73;;;1.20;57.30;;;;;;5033163;28;20044;-75
2023/02/08 07:35:00;;;;;;;21.10;12.43;;;1.20;57.40;;;;;;5034642;28;20502;-73
2023/02/08 07:37:25;;;;;;;25.63;13.57;;;1.30;57.10;;;;;;5034360;28;20045;-74
2023/02/08 07:39:51;;;;;;;28.97;13.73;;;1.30;56.90;;;;;;5034242;28;20034;-74
2023/02/08 07:42:17;;;;;;;25.93;13.50;;;1.30;56.80;;;;;;5034430;28;20039;-73
2023/02/08 07:44:43;;;;;;;22.07;12.87;;;1.40;57.40;;;;;;5034477;28;20037;-73
2023/02/08 07:47:09;;;;;;;22.70;12.00;;;1.40;56.70;;;;;;5034481;28;20091;-75
2023/02/08 07:49:34;;;;;;;22.57;12.70;;;1.40;56.90;;;;;;5034370;28;20038;-75
2023/02/08 07:52:01;;;;;;;23.47;13.00;;;1.50;56.90;;;;;;5034321;28;20867;-72
2023/02/08 07:54:27;;;;;;;25.37;12.27;;;1.50;56.90;;;;;;5008951;28;20132;-74
2023/02/08 07:56:53;;;;;;;23.53;11.57;;;1.60;56.60;;;;;;5034298;28;20077;-75
2023/02/08 07:59:19;;;;;;;20.10;11.40;;;1.60;56.50;;;;;;5034067;28;20072;-74
2023/02/08 08:01:44;;;;;;;19.00;11.63;;;1.60;56.10;;;;;;5032856;28;20033;-72
2023/02/08 08:04:11;;;;;;;20.17;11.27;;;1.70;56.20;;;;;;5034209;28;20121;-74
2023/02/08 08:06:37;;;;;;;21.00;11.40;;;1.80;55.70;;;;;;5034011;28;20042;-76
2023/02/08 08:09:03;;;;;;;21.70;11.63;;;1.90;55.80;;;;;;5034399;28;20120;-75
2023/02/08 08:11:28;;;;;;;22.90;11.43;;;1.90;55.60;;;;;;5033835;28;20430;-76
2023/02/08 08:13:54;;;;;;;22.67;12.07;;;2.00;55.30;;;;;;5033162;28;20511;-75
2023/02/08 08:16:20;;;;;;;18.33;10.43;;;2.00;55.20;;;;;;5034012;28;20034;-74
2023/02/08 08:18:46;;;;;;;23.60;11.50;;;2.10;54.70;;;;;;5034113;28;20084;-77
2023/02/08 08:21:14;;;;;;;18.60;11.40;;;2.10;54.50;;;;;;5033648;28;20042;-75
2023/02/08 08:23:40;;;;;;;20.73;11.00;;;2.20;53.70;;;;;;5033534;28;20040;-76
2023/02/08 08:26:13;;;;;;;26.77;11.33;;;2.20;54.10;;;;;;5034320;28;20042;-76
2023/02/08 08:28:39;;;;;;;19.85;10.98;;;2.20;54.30;;;;;;5034076;28;20033;-76
2023/02/08 08:31:19;;;;;;;20.00;11.03;;;2.30;54.30;;;;;;5032557;28;20493;-76
2023/02/08 08:33:45;;;;;;;24.63;11.77;;;2.30;54.20;;;;;;5033590;28;20030;-75
2023/02/08 08:36:11;;;;;;;22.10;11.03;;;2.40;53.60;;;;;;5033539;28;20495;-76
2023/02/08 08:38:38;;;;;;;20.40;10.97;;;2.40;53.40;;;;;;5034017;28;20044;-76
2023/02/08 08:41:21;;;;;;;22.00;12.70;;;2.50;53.80;;;;;;5033617;28;20022;-75
2023/02/08 08:43:48;;;;;;;23.97;11.47;;;2.50;53.30;;;;;;5033874;28;20575;-73
2023/02/08 08:46:15;;;;;;;22.33;11.17;;;2.60;53.30;;;;;;5033855;28;20419;-75
2023/02/08 08:48:41;;;;;;;23.17;11.07;;;2.60;53.30;;;;;;5033654;28;20030;-74
2023/02/08 08:51:07;;;;;;;23.60;11.53;;;2.60;53.20;;;;;;5033764;28;20036;-75
2023/02/08 08:53:32;;;;;;;20.57;11.27;;;2.70;53.30;;;;;;5033394;28;20064;-76
2023/02/08 08:55:58;;;;;;;18.20;11.33;;;2.80;52.70;;;;;;5033210;28;20049;-75
2023/02/08 08:58:24;;;;;;;20.83;11.57;;;2.80;52.30;;;;;;5033144;28;20077;-76
2023/02/08 09:00:50;;;;;;;27.40;13.40;;;2.80;52.20;;;;;;5033258;28;20480;-76
2023/02/08 09:03:15;;;;;;;25.00;13.00;;;2.80;52.20;;;;;;5033186;28;20026;-75
2023/02/08 09:05:41;;;;;;;20.07;11.17;;;2.90;52.50;;;;;;5033103;28;20041;-76
2023/02/08 09:08:07;;;;;;;24.87;12.73;;;2.90;52.10;;;;;;5033397;28;20471;-76
2023/02/08 09:10:33;;;;;;;26.57;11.93;;;3.00;52.30;;;;;;5033337;28;20037;-76
2023/02/08 09:13:00;;;;;;;20.80;12.37;;;3.00;52.00;;;;;;5032770;28;20081;-75
2023/02/08 09:15:25;;;;;;;22.57;12.93;;;3.00;51.60;;;;;;5033364;28;20057;-75
2023/02/08 09:17:51;;;;;;;22.73;12.57;;;3.10;51.70;;;;;;5033000;28;20119;-76
2023/02/08 09:20:17;;;;;;;23.27;13.17;;;3.10;51.40;;;;;;5032829;28;20029;-74
2023/02/08 09:22:43;;;;;;;19.97;12.77;;;3.10;51.40;;;;;;5033169;28;20056;-74
2023/02/08 09:25:08;;;;;;;25.77;13.17;;;3.10;51.50;;;;;;5032945;28;20115;-76
2023/02/08 09:27:35;;;;;;;21.60;13.37;;;3.20;51.50;;;;;;5033453;28;20033;-75
2023/02/08 09:30:00;;;;;;;27.50;12.63;;;3.20;51.80;;;;;;5033227;28;20060;-76
2023/02/08 09:32:29;;;;;;;20.30;12.07;;;3.20;51.80;;;;;;5032835;28;20492;-76
2023/02/08 09:34:56;;;;;;;27.20;12.63;;;3.20;51.30;;;;;;5033018;28;20037;-75
2023/02/08 09:37:22;;;;;;;30.33;12.60;;;3.30;51.70;;;;;;5032877;28;20042;-75
2023/02/08 09:39:48;;;;;;;30.23;12.50;;;3.30;52.00;;;;;;5029248;28;20044;-75
2023/02/08 09:42:25;;;;;;;26.00;12.33;;;3.40;51.90;;;;;;5030292;28;20108;-75
2023/02/08 09:45:12;;;;;;;41.43;12.90;;;3.40;50.80;;;;;;5032598;28;20447;-75
2023/02/08 09:47:47;;;;;;;30.07;13.33;;;3.40;50.70;;;;;;5032691;28;20033;-75
2023/02/08 09:50:16;;;;;;;23.43;11.73;;;3.40;50.90;;;;;;5032948;28;20558;-73
2023/02/08 09:53:04;;;;;;;24.60;12.27;;;3.40;51.00;;;;;;5032578;28;20025;-75
2023/02/08 09:55:41;;;;;;;26.17;12.70;;;3.40;51.00;;;;;;5032649;28;20037;-75
2023/02/08 09:58:18;;;;;;;16.93;10.27;;;3.40;50.90;;;;;;5031536;28;20037;-75
2023/02/08 10:00:49;;;;;;;18.60;10.73;;;3.50;50.50;;;;;;5032553;28;20046;-75
2023/02/08 10:03:33;;;;;;;22.00;10.77;;;3.50;50.10;;;;;;5030241;28;20502;-75
2023/02/08 10:06:00;;;;;;;21.43;10.30;;;3.40;50.10;;;;;;5029920;28;20507;-75
2023/02/08 10:08:28;;;;;;;17.87;9.67;;;3.50;50.00;;;;;;5030038;28;20149;-76
2023/02/08 10:10:57;;;;;;;17.57;9.23;;;3.50;49.90;;;;;;5032070;28;20056;-76
2023/02/08 10:13:39;;;;;;;20.37;9.83;;;3.60;50.10;;;;;;5032110;28;20037;-75
2023/02/08 10:16:25;;;;;;;22.07;9.97;;;3.60;49.90;;;;;;5032678;28;20032;-75
2023/02/08 10:19:07;;;;;;;24.63;10.50;;;3.70;49.80;;;;;;5032119;28;20046;-75
2023/02/08 10:22:05;;;;;;;23.80;9.57;;;3.70;50.10;;;;;;5032359;28;20033;-75
2023/02/08 10:24:49;;;;;;;26.70;10.97;;;3.80;49.50;;;;;;5024934;28;20088;-73
2023/02/08 10:27:15;;;;;;;18.43;10.93;;;3.80;49.50;;;;;;5032237;28;20029;-75
2023/02/08 10:29:59;;;;;;;16.50;9.40;;;3.80;49.30;;;;;;5031434;28;20040;-75
2023/02/08 10:32:50;;;;;;;19.40;9.13;;;3.90;49.20;;;;;;5032486;28;20034;-75
2023/02/08 10:35:24;;;;;;;19.63;11.20;;;3.90;49.30;;;;;;5031462;28;20450;-75
2023/02/08 10:37:51;;;;;;;18.27;9.63;;;3.90;49.50;;;;;;5034900;28;20072;-74
2023/02/08 10:40:39;;;;;;;18.37;8.80;;;4.00;49.80;;;;;;5035456;28;20038;-74
2023/02/08 10:43:43;;;;;;;18.17;9.57;;;4.10;49.00;;;;;;5036077;28;20068;-74
2023/02/08 10:46:36;;;;;;;18.87;9.93;;;4.10;48.50;;;;;;5035280;28;20037;-75
2023/02/08 10:50:00;;;;;;;16.33;8.77;;;4.10;48.90;;;;;;5035385;28;20104;-74
2023/02/08 10:52:26;;;;;;;;;;;4.20;48.70;;;;;;5022284;28;20109;-74
2023/02/08 10:54:52;;;;;;;16.63;8.00;;;4.20;48.00;;;;;;5035883;28;19909;-73
2023/02/08 10:57:23;;;;;;;20.70;8.77;;;4.20;48.50;;;;;;5035458;28;20117;-74
2023/02/08 11:00:03;;;;;;;13.43;8.57;;;4.20;48.30;;;;;;5035322;28;20080;-73
2023/02/08 11:02:34;;;;;;;14.30;7.63;;;4.30;47.70;;;;;;5033345;28;20029;-74
2023/02/08 11:05:05;;;;;;;13.63;7.60;;;4.30;46.90;;;;;;5034878;28;20518;-72
2023/02/08 11:07:31;;;;;;;14.63;8.00;;;4.30;47.20;;;;;;5035048;28;20080;-70
2023/02/08 11:10:19;;;;;;;16.23;7.90;;;4.40;47.80;;;;;;5035130;28;20381;-74
2023/02/08 11:13:02;;;;;;;19.20;9.60;;;4.50;47.70;;;;;;5035431;28;20064;-74
2023/02/08 11:15:46;;;;;;;13.53;8.67;;;4.50;47.50;;;;;;5054454;28;20554;-73
2023/02/08 11:18:23;;;;;;;35.43;10.83;;;4.60;47.70;;;;;;5054689;28;20041;-74
2023/02/08 11:20:55;;;;;;;26.40;9.90;;;4.60;47.00;;;;;;5055192;28;20105;-71
2023/02/08 11:23:30;;;;;;;16.15;9.40;;;4.60;47.40;;;;;;5054939;28;20674;-75
2023/02/08 11:26:17;;;;;;;17.03;9.97;;;4.70;48.00;;;;;;5054880;28;20060;-75
2023/02/08 11:28:57;;;;;;;17.83;9.53;;;4.80;47.30;;;;;;5055313;28;20063;-75
2023/02/08 11:31:22;;;;;;;12.93;8.43;;;4.80;47.30;;;;;;5036520;28;20041;-72
2023/02/08 11:34:03;;;;;;;14.33;8.33;;;4.90;46.50;;;;;;5034281;28;20041;-73
2023/02/08 11:36:30;;;;;;;14.50;8.07;;;4.80;45.20;;;;;;5034333;28;20038;-74
2023/02/08 11:38:59;;;;;;;16.53;6.60;;;4.90;45.50;;;;;;5034446;28;20038;-74
2023/02/08 11:41:25;;;;;;;12.67;7.20;;;4.90;45.10;;;;;;5033695;28;20535;-71
2023/02/08 11:44:02;;;;;;;10.43;5.90;;;4.90;44.30;;;;;;5034869;28;20120;-73
2023/02/08 11:46:31;;;;;;;12.03;6.53;;;4.90;44.10;;;;;;5034705;28;20025;-74
2023/02/08 11:48:57;;;;;;;9.70;6.03;;;4.90;44.30;;;;;;5032507;28;20510;-74
2023/02/08 11:51:35;;;;;;;11.97;5.53;;;5.00;44.80;;;;;;5033957;28;20109;-73
2023/02/08 11:54:03;;;;;;;11.83;5.57;;;5.10;44.50;;;;;;5034378;28;20124;-72
2023/02/08 11:56:33;;;;;;;7.90;4.90;;;5.10;43.80;;;;;;5034175;28;20037;-73
2023/02/08 11:59:22;;;;;;;13.37;4.73;;;5.20;43.70;;;;;;5034236;28;20519;-74
2023/02/08 12:01:47;;;;;;;10.60;5.77;;;5.20;43.70;;;;;;5034827;28;20165;-73
2023/02/08 12:04:16;;;;;;;22.03;5.27;;;5.20;43.40;;;;;;5034263;28;20088;-75
2023/02/08 12:07:26;;;;;;;14.70;5.30;;;5.20;43.00;;;;;;5034313;28;20403;-75
2023/02/08 12:10:33;;;;;;;12.20;7.13;;;5.30;43.60;;;;;;5026005;28;20041;-74
2023/02/08 12:13:29;;;;;;;17.03;7.43;;;5.30;44.00;;;;;;4995635;28;20037;-74
2023/02/08 12:15:58;;;;;;;12.47;5.60;;;5.30;44.50;;;;;;4996194;28;20049;-73
2023/02/08 12:18:41;;;;;;;13.97;6.30;;;5.40;44.30;;;;;;5021983;28;20042;-73
2023/02/08 12:21:26;;;;;;;14.63;7.93;;;5.40;44.20;;;;;;5034216;28;20037;-73
2023/02/08 12:23:53;;;;;;;12.03;7.47;;;5.40;44.50;;;;;;5034211;28;20095;-73
2023/02/08 12:26:24;;;;;;;10.70;6.20;;;5.40;44.20;;;;;;5033098;28;20045;-74
2023/02/08 12:29:04;;;;;;;9.70;6.27;;;5.40;44.30;;;;;;5033981;28;20029;-74
2023/02/08 12:31:57;;;;;;;10.37;6.47;;;5.40;44.30;;;;;;5033956;28;20033;-73
2023/02/08 12:35:01;;;;;;;17.63;6.50;;;5.40;44.30;;;;;;5033577;28;20034;-73
2023/02/08 12:40:54;;;;;;;14.30;7.60;;;5.50;44.70;;;;;;5032710;28;20041;-74
2023/02/08 12:43:41;;;;;;;14.70;8.10;;;5.50;44.90;;;;;;5032695;28;20029;-72
2023/02/08 12:46:32;;;;;;;13.63;7.43;;;5.50;44.10;;;;;;5032481;28;20090;-74
2023/02/08 12:49:16;;;;;;;16.57;7.43;;;5.60;44.30;;;;;;5032924;28;20392;-75
2023/02/08 12:51:53;;;;;;;16.23;8.40;;;5.60;44.70;;;;;;5032867;28;20637;-74
2023/02/08 12:54:25;;;;;;;17.40;7.33;;;5.60;44.50;;;;;;5032858;28;20044;-74
2023/02/08 12:56:51;;;;;;;12.30;7.17;;;5.60;44.20;;;;;;5032698;28;20057;-73
2023/02/08 12:59:29;;;;;;;10.67;6.93;;;5.60;44.10;;;;;;5032242;28;20395;-74
2023/02/08 13:02:02;;;;;;;15.17;7.60;;;5.60;44.60;;;;;;5032523;28;20029;-76
2023/02/08 13:04:38;;;;;;;15.00;7.57;;;5.70;44.40;;;;;;5031510;28;20093;-72
2023/02/08 13:07:24;;;;;;;13.97;7.33;;;5.70;44.20;;;;;;5030297;28;20045;-72